Terminal Aerodrome Forecast
Issued by NWS

Home | Current Version | Previous Version | Graphics & Text | Print | Product List | Glossary On
Versions: 1 2 3 4 5 6 7 8 9 10 11 12 13 14 15 16
388
FTUS43 KTOP 142340
TAFFOE
TAF
KFOE 142340Z 1500/1524 18009KT P6SM BKN250
     FM150800 19009KT P6SM SCT020 OVC150 WS012/24050KT
     FM151200 23013KT P6SM OVC100
     FM151800 31012KT P6SM SCT100 BKN250=

USA.gov is the U.S. government's official web portal to all federal, state and local government web resources and services.